sensor_id;sensor_type;location;lat;lon;timestamp;temperature;humidity
24452;DHT22;13350;50.984;5.822;2023-05-23T00:01:09;14.40;99.90
24452;DHT22;13350;50.984;5.822;2023-05-23T00:03:39;14.30;99.90
24452;DHT22;13350;50.984;5.822;2023-05-23T00:06:06;14.20;99.90
24452;DHT22;13350;50.984;5.822;2023-05-23T00:08:33;14.10;99.90
24452;DHT22;13350;50.984;5.822;2023-05-23T00:11:00;14.10;99.90
24452;DHT22;13350;50.984;5.822;2023-05-23T00:13:29;14.00;99.90
24452;DHT22;13350;50.984;5.822;2023-05-23T00:15:58;13.90;99.90
24452;DHT22;13350;50.984;5.822;2023-05-23T00:18:25;13.90;99.90
24452;DHT22;13350;50.984;5.822;2023-05-23T00:20:52;13.90;99.90
24452;DHT22;13350;50.984;5.822;2023-05-23T00:23:19;13.80;99.90
24452;DHT22;13350;50.984;5.822;2023-05-23T00:25:47;13.80;99.90
24452;DHT22;13350;50.984;5.822;2023-05-23T00:28:17;13.80;99.90
24452;DHT22;13350;50.984;5.822;2023-05-23T00:30:45;13.80;99.90
24452;DHT22;13350;50.984;5.822;2023-05-23T00:33:13;13.80;99.90
24452;DHT22;13350;50.984;5.822;2023-05-23T00:35:41;13.80;99.90
24452;DHT22;13350;50.984;5.822;2023-05-23T00:38:08;13.80;99.90
24452;DHT22;13350;50.984;5.822;2023-05-23T00:40:36;13.80;99.90
24452;DHT22;13350;50.984;5.822;2023-05-23T00:43:03;13.80;99.90
24452;DHT22;13350;50.984;5.822;2023-05-23T00:45:30;13.90;99.90
24452;DHT22;13350;50.984;5.822;2023-05-23T00:47:59;13.80;99.90
24452;DHT22;13350;50.984;5.822;2023-05-23T00:50:28;13.80;99.90
24452;DHT22;13350;50.984;5.822;2023-05-23T00:52:57;13.90;99.90
24452;DHT22;13350;50.984;5.822;2023-05-23T00:55:25;13.90;99.90
24452;DHT22;13350;50.984;5.822;2023-05-23T00:57:53;14.00;99.90
24452;DHT22;13350;50.984;5.822;2023-05-23T01:00:22;14.00;99.90
24452;DHT22;13350;50.984;5.822;2023-05-23T01:02:51;14.00;99.90
24452;DHT22;13350;50.984;5.822;2023-05-23T01:05:20;14.00;99.90
24452;DHT22;13350;50.984;5.822;2023-05-23T01:07:50;14.00;99.90
24452;DHT22;13350;50.984;5.822;2023-05-23T01:10:19;14.00;99.90
24452;DHT22;13350;50.984;5.822;2023-05-23T01:12:57;14.00;99.90
24452;DHT22;13350;50.984;5.822;2023-05-23T01:15:29;14.00;99.90
24452;DHT22;13350;50.984;5.822;2023-05-23T01:18:02;14.00;99.90
24452;DHT22;13350;50.984;5.822;2023-05-23T01:20:38;14.00;99.90
24452;DHT22;13350;50.984;5.822;2023-05-23T01:23:21;13.90;99.90
24452;DHT22;13350;50.984;5.822;2023-05-23T01:26:09;13.90;99.90
24452;DHT22;13350;50.984;5.822;2023-05-23T01:28:45;13.90;99.90
24452;DHT22;13350;50.984;5.822;2023-05-23T01:31:12;13.90;99.90
24452;DHT22;13350;50.984;5.822;2023-05-23T01:33:42;13.90;99.90
24452;DHT22;13350;50.984;5.822;2023-05-23T01:36:12;13.90;99.90
24452;DHT22;13350;50.984;5.822;2023-05-23T01:38:40;13.90;99.90
24452;DHT22;13350;50.984;5.822;2023-05-23T01:41:07;13.90;99.90
24452;DHT22;13350;50.984;5.822;2023-05-23T01:43:35;13.90;99.90
24452;DHT22;13350;50.984;5.822;2023-05-23T01:46:04;13.90;99.90
24452;DHT22;13350;50.984;5.822;2023-05-23T01:48:33;13.90;99.90
24452;DHT22;13350;50.984;5.822;2023-05-23T01:51:01;13.90;99.90
24452;DHT22;13350;50.984;5.822;2023-05-23T01:53:29;13.90;99.90
24452;DHT22;13350;50.984;5.822;2023-05-23T01:55:57;13.90;99.90
24452;DHT22;13350;50.984;5.822;2023-05-23T01:58:28;13.90;99.90
24452;DHT22;13350;50.984;5.822;2023-05-23T02:00:55;13.90;99.90
24452;DHT22;13350;50.984;5.822;2023-05-23T02:03:24;13.90;99.90
24452;DHT22;13350;50.984;5.822;2023-05-23T02:05:51;13.90;99.90
24452;DHT22;13350;50.984;5.822;2023-05-23T02:08:18;13.90;99.90
24452;DHT22;13350;50.984;5.822;2023-05-23T02:10:46;13.90;99.90
24452;DHT22;13350;50.984;5.822;2023-05-23T02:13:13;13.90;99.90
24452;DHT22;13350;50.984;5.822;2023-05-23T02:15:40;13.90;99.90
24452;DHT22;13350;50.984;5.822;2023-05-23T02:18:07;13.90;99.90
24452;DHT22;13350;50.984;5.822;2023-05-23T02:20:36;13.90;99.90
24452;DHT22;13350;50.984;5.822;2023-05-23T02:23:03;13.90;99.90
24452;DHT22;13350;50.984;5.822;2023-05-23T02:25:30;13.90;99.90
24452;DHT22;13350;50.984;5.822;2023-05-23T02:27:57;13.80;99.90
24452;DHT22;13350;50.984;5.822;2023-05-23T02:30:24;13.80;99.90
24452;DHT22;13350;50.984;5.822;2023-05-23T22:53:38;8.40;99.90
24452;DHT22;13350;50.984;5.822;2023-05-23T22:56:06;8.30;99.90
24452;DHT22;13350;50.984;5.822;2023-05-23T22:58:33;8.20;99.90
24452;DHT22;13350;50.984;5.822;2023-05-23T23:01:00;8.20;99.90
24452;DHT22;13350;50.984;5.822;2023-05-23T23:03:27;8.10;99.90
24452;DHT22;13350;50.984;5.822;2023-05-23T23:05:54;8.20;99.90
24452;DHT22;13350;50.984;5.822;2023-05-23T23:08:22;8.10;99.90
24452;DHT22;13350;50.984;5.822;2023-05-23T23:10:50;8.00;99.90
24452;DHT22;13350;50.984;5.822;2023-05-23T23:13:17;7.90;99.90
24452;DHT22;13350;50.984;5.822;2023-05-23T23:15:44;7.90;99.90
24452;DHT22;13350;50.984;5.822;2023-05-23T23:18:16;7.90;99.90
24452;DHT22;13350;50.984;5.822;2023-05-23T23:20:44;7.90;99.90
24452;DHT22;13350;50.984;5.822;2023-05-23T23:23:12;7.80;99.90
24452;DHT22;13350;50.984;5.822;2023-05-23T23:25:40;7.70;99.90
24452;DHT22;13350;50.984;5.822;2023-05-23T23:28:08;7.70;99.90
24452;DHT22;13350;50.984;5.822;2023-05-23T23:30:35;7.70;99.90
24452;DHT22;13350;50.984;5.822;2023-05-23T23:33:02;7.60;99.90
24452;DHT22;13350;50.984;5.822;2023-05-23T23:35:29;7.50;99.90
24452;DHT22;13350;50.984;5.822;2023-05-23T23:37:57;7.40;99.90
24452;DHT22;13350;50.984;5.822;2023-05-23T23:40:24;7.30;99.90
24452;DHT22;13350;50.984;5.822;2023-05-23T23:42:51;7.20;99.90
24452;DHT22;13350;50.984;5.822;2023-05-23T23:45:19;7.20;99.90
24452;DHT22;13350;50.984;5.822;2023-05-23T23:47:46;7.30;99.90
24452;DHT22;13350;50.984;5.822;2023-05-23T23:50:14;7.30;99.90
24452;DHT22;13350;50.984;5.822;2023-05-23T23:52:41;7.20;99.90
24452;DHT22;13350;50.984;5.822;2023-05-23T23:55:08;7.20;99.90
24452;DHT22;13350;50.984;5.822;2023-05-23T23:57:36;7.10;99.90
